GCGM

La Gomera Airport

Alajero, La Gomera Island, Spain
METAR GCGM 181600Z VRB06G25KT 9999 SCT030 23/14 Q1017 RMK R09/VRB08KT ARP/02011G27KT 310V100
Observed Flight Rules
Oct-18 @ 16:00 UTC (24 minutes ago) Visual Flight Rules
Wind Visibility Clouds
Variable at 6 knots
 Gusting to 25 knots
10,000+ meters
  • Scattered at 3,000' AGL
Temperatures Readings
Current 23°C / 73°F
Dewpoint 14°C / 57°F
Humidity 57%
Altimeter 30.03" Hg
Pressure 1017 hPa
Elevation 219
METAR GCGM 181600Z VRB06G25KT 9999 SCT030 23/14 Q1017 RMK R09/VRB08KT ARP/02011G27KT 310V100
Observed Flight Rules
Oct-18 @ 16:00 UTC
(24 minutes ago)
VFR
Wind Visibility
Variable at 6 knots
 Gusting to 25 knots
10,000+ meters
Clouds
  • Scattered at 3,000' AGL
Temperature Dewpoint
23°C / 73°F 14°C / 57°F
Humidity Altimeter Pressure
57% 30.03" Hg 1017 hPa